• Join FlightAware (Why Join?)
  • Login
  • US Flag 
08:42PM EDT


 

Airport Tracker/Info


-or-


 

Live Flight TrackerFlight Track Log ✈ SWA3121 ✈ 01-May-2013 ✈ KRDU - KBNA

Flight Track Log - Related Links

Times and Time Zones

All times are in EDT time to prevent confusion due to time zone crossing. See the SWA3121 flight status page for this flight to view local times or setup timezone preferences in your user account.

Time Position Orientation Groundspeed Altitude Reporting Facility
EDT Latitude Longitude Course Direction KTS MPH feet Rate Location/Type
03:36PM 35.9369 -78.7553 17° North 198 228 5,200  Level Washington Center
03:37PM 35.9819 -78.7853 332° Northwest 270 311 7,400 3,540 Climbing Washington Center
03:38PM 36.0303 -78.8564 310° West 303 349 11,300 2,280 Climbing Washington Center
03:39PM 36.0186 -78.9689 263° West 294 338 12,100 1,860 Climbing Washington Center
03:40PM 35.9617 -79.0692 235° Southwest 314 361 15,000 3,000 Climbing Washington Center
03:41PM 35.9044 -79.1719 236° Southwest 341 392 18,000 3,060 Climbing Washington Center
03:42PM 35.8444 -79.2894 238° Southwest 375 432 21,200 3,120 Climbing Washington Center
03:43PM 35.8233 -79.4269 259° West 403 464 24,400 2,700 Climbing Washington Center
03:45PM 35.7803 -79.7283 260° West 415 478 29,900 1,920 Climbing Atlanta Center
03:46PM 35.7561 -79.8728 258° West 423 487 30,700 1,860 Climbing Atlanta Center
03:47PM 35.7336 -80.0172 259° West 433 498 33,700 1,620 Climbing Atlanta Center
03:48PM 35.7089 -80.1489 257° West 417 480 34,000 120 Climbing Atlanta Center
03:49PM 35.7133 -80.2919 272° West 409 471 34,000  Level Atlanta Center
03:50PM 35.7214 -80.4269 274° West 404 465 34,000  Level Atlanta Center
03:51PM 35.7317 -80.5647 275° West 404 465 34,000  Level Atlanta Center
03:52PM 35.7422 -80.7153 275° West 404 465 34,000  Level Atlanta Center
03:53PM 35.7500 -80.8531 274° West 404 465 34,000  Level Atlanta Center
03:54PM 35.7597 -80.9908 275° West 404 465 34,000  Level Atlanta Center
03:55PM 35.7714 -81.1311 276° West 404 465 34,000  Level Atlanta Center
03:56PM 35.7811 -81.2742 275° West 410 472 34,000  Level Atlanta Center
03:57PM 35.7883 -81.4147 274° West 422 486 34,000  Level Atlanta Center
03:58PM 35.7953 -81.5581 273° West 422 486 34,000  Level Atlanta Center
03:59PM 35.8022 -81.6958 274° West 417 480 34,000  Level Atlanta Center
04:00PM 35.8092 -81.8367 274° West 417 480 34,000  Level Atlanta Center
04:01PM 35.8178 -81.9772 274° West 417 480 34,000  Level Atlanta Center
04:02PM 35.8242 -82.1178 273° West 417 480 34,000  Level Atlanta Center
04:03PM 35.8300 -82.2278 274° West 417 480 34,000  Level Atlanta Center
04:04PM 35.8344 -82.3814 272° West 417 480 34,000  Level Atlanta Center
04:05PM 35.8425 -82.5247 274° West 417 480 34,000 -420 Level Atlanta Center
04:06PM 35.8483 -82.6681 273° West 422 486 33,200 -900 Descending Atlanta Center
04:07PM 35.8561 -82.8114 274° West 422 486 32,200 -1,020 Descending Atlanta Center
04:08PM 35.8636 -82.9600 274° West 422 486 31,200 -1,020 Descending Atlanta Center
04:09PM 35.8711 -83.1086 274° West 427 491 30,200 -600 Descending Atlanta Center
04:10PM 35.8783 -83.2544 274° West 427 491 30,000 -120 Descending Atlanta Center
04:11PM 35.8856 -83.3981 274° West 427 491 30,000  Level Atlanta Center
04:12PM 35.8883 -83.5467 271° West 427 491 30,000 -540 Level Atlanta Center
04:13PM 35.8972 -83.6875 274° West 422 486 29,000 -1,020 Descending Atlanta Center
04:14PM 35.9017 -83.8311 272° West 422 486 28,000 -1,020 Descending Atlanta Center
04:15PM 35.8936 -83.9694 266° West 422 486 27,000 -1,080 Descending Atlanta Center
04:16PM 35.8706 -84.1081 258° West 422 486 25,900 -1,080 Descending Atlanta Center
04:17PM 35.8475 -84.2489 259° West 422 486 24,900 -1,020 Descending Atlanta Center
04:18PM 35.8222 -84.3869 257° West 427 491 23,900 -1,020 Descending Atlanta Center
04:19PM 35.8008 -84.5253 259° West 422 486 22,900 -960 Descending Atlanta Center
04:20PM 35.7772 -84.6581 258° West 411 473 22,000 -480 Descending Atlanta Center
04:21PM 35.7536 -84.7911 258° West 411 473 22,000  Level Atlanta Center
04:23PM 35.7092 -85.0444 258° West 408 470 22,000 -240 Level Memphis Center
04:24PM 35.6875 -85.1736 258° West 401 461 21,400 -1,500 Descending Memphis Center
04:25PM 35.6636 -85.3028 257° West 395 455 19,100 -1,560 Descending Memphis Center
04:26PM 35.6414 -85.4294 258° West 395 455 18,300 -720 Descending Memphis Center
04:27PM 35.6172 -85.5558 257° West 388 447 17,700 -600 Descending Memphis Center
04:28PM 35.5928 -85.6800 256° West 383 441 17,200 -540 Descending Memphis Center
04:29PM 35.5703 -85.8011 257° West 378 435 16,700 -540 Descending Memphis Center
04:30PM 35.5664 -85.9289 268° West 378 435 16,200 -600 Descending Memphis Center
04:31PM 35.6433 -86.0347 312° West 349 402 15,600 -1,200 Descending Memphis Center
04:32PM 35.7131 -86.1281 313° West 365 420 13,900 -1,980 Descending Memphis Center
04:33PM 35.7789 -86.2194 312° West 360 414 11,700 -1,860 Descending Memphis Center
04:34PM 35.8464 -86.3083 313° West 355 409 10,200 -1,500 Descending Memphis Center
04:35PM 35.9053 -86.3847 314° West 328 377 8,800 -1,500 Descending Memphis Center
04:36PM 35.9639 -86.4589 314° West 311 358 7,200 -1,080 Descending Memphis Center
04:37PM 36.0225 -86.5331 314° West 302 348 6,700 -900 Descending Memphis Center
04:38PM 36.0781 -86.5767 328° Northwest 285 328 5,400 -960 Descending Memphis Center
04:39PM 36.1439 -86.5481 19° North 228 262 4,800 -900 Descending Memphis Center
04:40PM 36.1778 -86.5722 330° Northwest 186 214 3,700 -1,380 Descending Memphis Center
04:41PM 36.1858 -86.6308 280° West 144 166 2,100 -1,320 Descending Memphis Center
04:42PM 36.1553 -86.6528 210° Southwest 132 152 1,100 -1,020 Descending Memphis Center
04:44PM 36.1167 -86.6667 345° North  Level FlightAware Approximate
04:51PM 36.1245 -86.6782 345° North  Level Estimated
04:52PM 36.1245 -86.6782 345° North  Level Estimated
04:53PM 36.1245 -86.6782 345° North  Level Estimated
04:54PM 36.1245 -86.6782 345° North  Level Estimated
04:55PM 36.1245 -86.6782 345° North  Level Estimated
04:56PM 36.1245 -86.6782 345° North  Level Estimated
04:57PM 36.1245 -86.6782 345° North  Level Estimated
04:58PM 36.1245 -86.6782 345° North  Level Estimated
04:59PM 36.1245 -86.6782 345° North  Level Estimated
05:00PM 36.1245 -86.6782 345° North  Level Estimated
05:01PM 36.1245 -86.6782 345° North  Level Estimated